sensor_id;sensor_type;location;lat;lon;timestamp;pressure;altitude;pressure_sealevel;temperature;humidity
72414;BME280;60995;52.154;4.498;2023-04-01T00:00:44;99014.28;;;10.61;87.20
72414;BME280;60995;52.154;4.498;2023-04-01T00:03:01;99015.63;;;10.65;87.13
72414;BME280;60995;52.154;4.498;2023-04-01T00:05:18;99014.66;;;10.58;87.55
72414;BME280;60995;52.154;4.498;2023-04-01T00:07:34;99019.34;;;10.64;87.37
72414;BME280;60995;52.154;4.498;2023-04-01T00:09:50;99023.00;;;10.71;87.57
72414;BME280;60995;52.154;4.498;2023-04-01T00:12:07;99027.78;;;10.69;86.95
72414;BME280;60995;52.154;4.498;2023-04-01T00:14:23;99028.09;;;10.74;86.90
72414;BME280;60995;52.154;4.498;2023-04-01T00:16:39;99025.28;;;10.68;87.15
72414;BME280;60995;52.154;4.498;2023-04-01T00:18:56;99029.28;;;10.72;87.13
72414;BME280;60995;52.154;4.498;2023-04-01T00:21:12;99028.63;;;10.70;87.06
72414;BME280;60995;52.154;4.498;2023-04-01T00:23:29;99032.00;;;10.72;87.24
72414;BME280;60995;52.154;4.498;2023-04-01T00:25:46;99028.72;;;10.76;87.25
72414;BME280;60995;52.154;4.498;2023-04-01T00:28:03;99035.03;;;10.77;86.76
72414;BME280;60995;52.154;4.498;2023-04-01T00:30:20;99029.03;;;10.82;86.73
72414;BME280;60995;52.154;4.498;2023-04-01T00:32:36;99038.66;;;10.69;87.25
72414;BME280;60995;52.154;4.498;2023-04-01T00:34:53;99040.69;;;10.67;86.99
72414;BME280;60995;52.154;4.498;2023-04-01T00:37:09;99042.00;;;10.71;86.91
72414;BME280;60995;52.154;4.498;2023-04-01T00:39:28;99043.78;;;10.64;87.21
72414;BME280;60995;52.154;4.498;2023-04-01T00:41:45;99048.00;;;10.67;87.53
72414;BME280;60995;52.154;4.498;2023-04-01T00:46:40;99052.44;;;10.59;87.27
72414;BME280;60995;52.154;4.498;2023-04-01T00:48:56;99056.84;;;10.61;87.40
72414;BME280;60995;52.154;4.498;2023-04-01T00:51:19;99055.25;;;10.66;87.57
72414;BME280;60995;52.154;4.498;2023-04-01T00:53:42;99059.03;;;10.65;87.32
72414;BME280;60995;52.154;4.498;2023-04-01T00:56:04;99063.47;;;10.58;86.96
72414;BME280;60995;52.154;4.498;2023-04-01T00:58:29;99063.28;;;10.36;88.18
72414;BME280;60995;52.154;4.498;2023-04-01T01:00:51;99058.75;;;10.52;87.58
72414;BME280;60995;52.154;4.498;2023-04-01T01:03:08;99065.34;;;10.57;87.24
72414;BME280;60995;52.154;4.498;2023-04-01T01:05:38;99077.44;;;10.47;87.70
72414;BME280;60995;52.154;4.498;2023-04-01T01:08:21;99073.91;;;10.46;87.87
72414;BME280;60995;52.154;4.498;2023-04-01T01:11:00;99071.69;;;10.50;87.36
72414;BME280;60995;52.154;4.498;2023-04-01T01:13:52;99067.09;;;10.50;87.82
72414;BME280;60995;52.154;4.498;2023-04-01T01:16:32;99076.25;;;10.49;87.94
72414;BME280;60995;52.154;4.498;2023-04-01T01:22:38;99085.88;;;10.52;88.04
72414;BME280;60995;52.154;4.498;2023-04-01T01:25:19;99086.63;;;10.46;88.63
72414;BME280;60995;52.154;4.498;2023-04-01T01:27:49;99091.56;;;10.42;88.22
72414;BME280;60995;52.154;4.498;2023-04-01T01:36:11;99102.91;;;10.46;87.99
72414;BME280;60995;52.154;4.498;2023-04-01T01:38:33;99104.72;;;10.53;87.90
72414;BME280;60995;52.154;4.498;2023-04-01T01:40:52;99102.16;;;10.52;87.97
72414;BME280;60995;52.154;4.498;2023-04-01T01:43:17;99103.84;;;10.53;87.88
72414;BME280;60995;52.154;4.498;2023-04-01T01:45:42;99110.88;;;10.70;87.83
72414;BME280;60995;52.154;4.498;2023-04-01T01:48:04;99104.47;;;10.63;87.90
72414;BME280;60995;52.154;4.498;2023-04-01T01:50:23;99110.88;;;10.70;87.96
72414;BME280;60995;52.154;4.498;2023-04-01T01:52:45;99117.06;;;10.56;88.05
72414;BME280;60995;52.154;4.498;2023-04-01T01:55:26;99112.28;;;10.58;87.61
72414;BME280;60995;52.154;4.498;2023-04-01T01:57:45;99114.69;;;10.53;88.39
72414;BME280;60995;52.154;4.498;2023-04-01T02:00:06;99113.59;;;10.62;88.40
72414;BME280;60995;52.154;4.498;2023-04-01T02:02:33;99120.06;;;10.61;87.75
72414;BME280;60995;52.154;4.498;2023-04-01T02:04:50;99124.75;;;10.67;87.89
72414;BME280;60995;52.154;4.498;2023-04-01T02:07:13;99130.31;;;10.74;87.20
72414;BME280;60995;52.154;4.498;2023-04-01T02:09:35;99131.34;;;10.73;87.73
72414;BME280;60995;52.154;4.498;2023-04-01T02:11:57;99132.19;;;10.73;87.54
72414;BME280;60995;52.154;4.498;2023-04-01T02:14:22;99143.88;;;10.74;87.38
72414;BME280;60995;52.154;4.498;2023-04-01T02:16:53;99143.16;;;10.80;87.06
72414;BME280;60995;52.154;4.498;2023-04-01T02:19:16;99147.25;;;10.76;87.45
72414;BME280;60995;52.154;4.498;2023-04-01T02:21:39;99147.97;;;10.70;87.29
72414;BME280;60995;52.154;4.498;2023-04-01T02:24:00;99149.78;;;10.78;87.24
72414;BME280;60995;52.154;4.498;2023-04-01T02:26:20;99154.50;;;10.84;87.20
72414;BME280;60995;52.154;4.498;2023-04-01T02:28:38;99162.63;;;10.84;87.38
72414;BME280;60995;52.154;4.498;2023-04-01T02:30:57;99156.31;;;10.91;87.20
72414;BME280;60995;52.154;4.498;2023-04-01T02:33:16;99164.03;;;10.80;86.88
72414;BME280;60995;52.154;4.498;2023-04-01T02:35:36;99169.69;;;10.93;86.47
72414;BME280;60995;52.154;4.498;2023-04-01T02:37:55;99164.63;;;10.90;86.63
72414;BME280;60995;52.154;4.498;2023-04-01T02:40:13;99172.44;;;11.08;86.83
72414;BME280;60995;52.154;4.498;2023-04-01T02:42:30;99174.41;;;10.99;86.79
72414;BME280;60995;52.154;4.498;2023-04-01T02:44:47;99179.06;;;11.05;86.79
72414;BME280;60995;52.154;4.498;2023-04-01T02:47:03;99184.16;;;11.08;86.56
72414;BME280;60995;52.154;4.498;2023-04-01T02:49:19;99184.16;;;11.08;86.90
72414;BME280;60995;52.154;4.498;2023-04-01T02:51:36;99186.81;;;10.93;87.17
72414;BME280;60995;52.154;4.498;2023-04-01T02:53:52;99207.44;;;11.03;87.04
72414;BME280;60995;52.154;4.498;2023-04-01T02:56:09;99189.59;;;11.08;86.27
72414;BME280;60995;52.154;4.498;2023-04-01T02:58:25;99205.28;;;11.21;86.07
72414;BME280;60995;52.154;4.498;2023-04-01T03:00:41;99202.19;;;11.01;86.75
72414;BME280;60995;52.154;4.498;2023-04-01T03:02:58;99203.25;;;11.00;87.03
72414;BME280;60995;52.154;4.498;2023-04-01T03:05:14;99215.09;;;10.99;86.73
72414;BME280;60995;52.154;4.498;2023-04-01T03:07:31;99215.03;;;11.07;87.04
72414;BME280;60995;52.154;4.498;2023-04-01T03:09:47;99228.72;;;10.91;87.60
72414;BME280;60995;52.154;4.498;2023-04-01T03:12:04;99225.66;;;10.94;87.10
72414;BME280;60995;52.154;4.498;2023-04-01T03:14:21;99231.13;;;10.86;87.52
72414;BME280;60995;52.154;4.498;2023-04-01T03:16:38;99233.50;;;10.89;87.72
72414;BME280;60995;52.154;4.498;2023-04-01T03:18:54;99244.38;;;10.81;88.10
72414;BME280;60995;52.154;4.498;2023-04-01T03:21:16;99252.75;;;10.71;88.77
72414;BME280;60995;52.154;4.498;2023-04-01T03:23:34;99253.59;;;10.71;88.48
72414;BME280;60995;52.154;4.498;2023-04-01T03:25:50;99263.03;;;10.84;88.18
72414;BME280;60995;52.154;4.498;2023-04-01T03:28:07;99255.38;;;10.87;87.99
72414;BME280;60995;52.154;4.498;2023-04-01T03:30:23;99261.34;;;10.83;87.47
72414;BME280;60995;52.154;4.498;2023-04-01T03:32:39;99264.34;;;10.88;87.81
72414;BME280;60995;52.154;4.498;2023-04-01T03:34:56;99265.44;;;10.79;87.89
72414;BME280;60995;52.154;4.498;2023-04-01T03:37:12;99280.50;;;10.81;88.12
72414;BME280;60995;52.154;4.498;2023-04-01T03:39:30;99275.84;;;10.98;87.69
72414;BME280;60995;52.154;4.498;2023-04-01T03:41:47;99278.91;;;10.95;87.30
72414;BME280;60995;52.154;4.498;2023-04-01T03:44:03;99293.84;;;10.91;87.12
72414;BME280;60995;52.154;4.498;2023-04-01T03:46:20;99293.06;;;10.82;87.57
72414;BME280;60995;52.154;4.498;2023-04-01T03:48:36;99293.44;;;11.02;87.29
72414;BME280;60995;52.154;4.498;2023-04-01T03:50:53;99293.53;;;10.86;87.64
72414;BME280;60995;52.154;4.498;2023-04-01T03:53:09;99303.78;;;10.75;87.88
72414;BME280;60995;52.154;4.498;2023-04-01T03:55:26;99305.56;;;10.91;87.82
72414;BME280;60995;52.154;4.498;2023-04-01T03:57:42;99310.88;;;10.76;87.46
72414;BME280;60995;52.154;4.498;2023-04-01T03:59:58;99308.34;;;10.75;87.44
72414;BME280;60995;52.154;4.498;2023-04-01T04:02:15;99317.84;;;10.71;87.33
72414;BME280;60995;52.154;4.498;2023-04-01T04:04:31;99315.59;;;10.83;87.52
72414;BME280;60995;52.154;4.498;2023-04-01T04:06:48;99321.69;;;10.85;86.68
72414;BME280;60995;52.154;4.498;2023-04-01T04:09:04;99332.50;;;10.93;86.37
72414;BME280;60995;52.154;4.498;2023-04-01T04:11:21;99331.69;;;10.92;86.52
72414;BME280;60995;52.154;4.498;2023-04-01T04:13:38;99330.41;;;10.72;86.84
72414;BME280;60995;52.154;4.498;2023-04-01T04:15:55;99333.31;;;10.62;87.02
72414;BME280;60995;52.154;4.498;2023-04-01T04:18:11;99342.09;;;10.72;86.62
72414;BME280;60995;52.154;4.498;2023-04-01T04:20:27;99343.41;;;10.76;86.71
72414;BME280;60995;52.154;4.498;2023-04-01T04:22:43;99350.91;;;10.74;86.85
72414;BME280;60995;52.154;4.498;2023-04-01T04:24:59;99352.78;;;10.66;87.21
72414;BME280;60995;52.154;4.498;2023-04-01T04:27:16;99356.84;;;10.70;86.97
72414;BME280;60995;52.154;4.498;2023-04-01T04:29:32;99357.66;;;10.79;86.67
72414;BME280;60995;52.154;4.498;2023-04-01T04:31:49;99365.94;;;10.85;86.59
72414;BME280;60995;52.154;4.498;2023-04-01T04:34:05;99370.91;;;10.73;86.42
72414;BME280;60995;52.154;4.498;2023-04-01T04:36:21;99374.22;;;11.00;86.34
72414;BME280;60995;52.154;4.498;2023-04-01T04:38:38;99370.88;;;10.82;86.27
72414;BME280;60995;52.154;4.498;2023-04-01T04:40:54;99378.19;;;10.81;86.41
72414;BME280;60995;52.154;4.498;2023-04-01T04:43:12;99387.34;;;10.80;86.13
72414;BME280;60995;52.154;4.498;2023-04-01T04:45:30;99389.53;;;10.85;86.30
72414;BME280;60995;52.154;4.498;2023-04-01T04:47:47;99390.09;;;10.72;86.48
72414;BME280;60995;52.154;4.498;2023-04-01T04:50:03;99394.97;;;10.76;86.83
72414;BME280;60995;52.154;4.498;2023-04-01T04:52:20;99405.84;;;10.68;86.50
72414;BME280;60995;52.154;4.498;2023-04-01T04:54:36;99401.97;;;10.63;86.77
72414;BME280;60995;52.154;4.498;2023-04-01T04:56:52;99402.09;;;10.78;86.52
72414;BME280;60995;52.154;4.498;2023-04-01T04:59:09;99412.84;;;10.63;86.81
72414;BME280;60995;52.154;4.498;2023-04-01T05:01:26;99416.03;;;10.58;87.17
72414;BME280;60995;52.154;4.498;2023-04-01T05:03:42;99416.22;;;10.56;87.29
72414;BME280;60995;52.154;4.498;2023-04-01T05:05:59;99429.44;;;10.59;86.93
72414;BME280;60995;52.154;4.498;2023-04-01T05:08:15;99427.25;;;10.47;87.10
72414;BME280;60995;52.154;4.498;2023-04-01T05:10:31;99434.84;;;10.59;87.42
72414;BME280;60995;52.154;4.498;2023-04-01T05:12:48;99434.53;;;10.63;86.74
72414;BME280;60995;52.154;4.498;2023-04-01T05:15:05;99441.94;;;10.85;86.38
72414;BME280;60995;52.154;4.498;2023-04-01T05:17:22;99439.38;;;10.84;86.30
72414;BME280;60995;52.154;4.498;2023-04-01T05:19:39;99445.84;;;10.66;86.28
72414;BME280;60995;52.154;4.498;2023-04-01T05:21:55;99448.75;;;10.73;86.23
72414;BME280;60995;52.154;4.498;2023-04-01T05:24:11;99458.72;;;10.81;86.22
72414;BME280;60995;52.154;4.498;2023-04-01T05:26:28;99457.72;;;10.73;86.12
72414;BME280;60995;52.154;4.498;2023-04-01T05:28:44;99450.06;;;10.85;85.45
72414;BME280;60995;52.154;4.498;2023-04-01T05:31:02;99457.06;;;10.63;86.13
72414;BME280;60995;52.154;4.498;2023-04-01T05:33:19;99460.94;;;10.69;86.20
72414;BME280;60995;52.154;4.498;2023-04-01T05:35:35;99467.41;;;10.59;86.71
72414;BME280;60995;52.154;4.498;2023-04-01T05:37:52;99470.81;;;10.62;86.47
72414;BME280;60995;52.154;4.498;2023-04-01T05:40:08;99483.19;;;10.56;86.80
72414;BME280;60995;52.154;4.498;2023-04-01T05:42:26;99476.03;;;10.71;86.32
72414;BME280;60995;52.154;4.498;2023-04-01T05:44:42;99487.59;;;10.65;86.65
72414;BME280;60995;52.154;4.498;2023-04-01T05:46:58;99484.03;;;10.73;86.02
72414;BME280;60995;52.154;4.498;2023-04-01T05:49:14;99493.16;;;10.72;86.18
72414;BME280;60995;52.154;4.498;2023-04-01T05:51:30;99495.38;;;10.52;86.42
72414;BME280;60995;52.154;4.498;2023-04-01T05:53:47;99497.72;;;10.71;86.31
72414;BME280;60995;52.154;4.498;2023-04-01T05:56:04;99507.41;;;10.74;85.89
72414;BME280;60995;52.154;4.498;2023-04-01T05:58:20;99507.91;;;10.61;86.45
72414;BME280;60995;52.154;4.498;2023-04-01T06:00:38;99502.16;;;10.48;86.73
72414;BME280;60995;52.154;4.498;2023-04-01T06:02:54;99516.75;;;10.38;87.14
72414;BME280;60995;52.154;4.498;2023-04-01T06:05:15;99520.81;;;10.51;86.78
72414;BME280;60995;52.154;4.498;2023-04-01T06:07:34;99526.22;;;10.42;86.76
72414;BME280;60995;52.154;4.498;2023-04-01T06:09:51;99527.09;;;10.43;87.12
72414;BME280;60995;52.154;4.498;2023-04-01T06:23:19;99550.63;;;10.84;85.71
72414;BME280;60995;52.154;4.498;2023-04-01T06:31:49;99556.25;;;10.82;85.22
72414;BME280;60995;52.154;4.498;2023-04-01T06:44:49;99579.13;;;11.04;85.84
72414;BME280;60995;52.154;4.498;2023-04-01T06:49:44;99578.44;;;10.94;84.92
72414;BME280;60995;52.154;4.498;2023-04-01T06:57:55;99592.97;;;11.26;83.92
72414;BME280;60995;52.154;4.498;2023-04-01T07:00:20;99598.78;;;11.15;83.71
72414;BME280;60995;52.154;4.498;2023-04-01T07:02:43;99602.50;;;11.05;84.06
72414;BME280;60995;52.154;4.498;2023-04-01T07:05:24;99607.28;;;11.20;83.76
72414;BME280;60995;52.154;4.498;2023-04-01T07:07:50;99610.63;;;11.22;83.25
72414;BME280;60995;52.154;4.498;2023-04-01T07:10:19;99610.63;;;11.22;83.72
72414;BME280;60995;52.154;4.498;2023-04-01T07:13:00;99616.41;;;11.11;83.96
72414;BME280;60995;52.154;4.498;2023-04-01T07:15:26;99612.97;;;11.41;83.49
72414;BME280;60995;52.154;4.498;2023-04-01T07:17:50;99617.69;;;11.56;82.66
72414;BME280;60995;52.154;4.498;2023-04-01T07:20:31;99627.56;;;11.49;82.45
72414;BME280;60995;52.154;4.498;2023-04-01T07:22:54;99631.34;;;11.39;82.64
72414;BME280;60995;52.154;4.498;2023-04-01T07:25:35;99641.84;;;11.26;83.13
72414;BME280;60995;52.154;4.498;2023-04-01T07:28:02;99638.31;;;11.09;83.89
72414;BME280;60995;52.154;4.498;2023-04-01T07:30:28;99634.41;;;11.20;83.47
72414;BME280;60995;52.154;4.498;2023-04-01T07:33:24;99637.28;;;11.10;83.12
72414;BME280;60995;52.154;4.498;2023-04-01T07:35:52;99648.50;;;11.15;83.38
72414;BME280;60995;52.154;4.498;2023-04-01T07:41:23;99659.84;;;11.27;83.39
72414;BME280;60995;52.154;4.498;2023-04-01T07:44:10;99651.88;;;11.25;83.11
72414;BME280;60995;52.154;4.498;2023-04-01T07:55:38;99674.78;;;11.06;84.30
72414;BME280;60995;52.154;4.498;2023-04-01T08:06:31;99691.06;;;11.31;82.95
72414;BME280;60995;52.154;4.498;2023-04-01T08:09:15;99694.47;;;11.33;82.70
72414;BME280;60995;52.154;4.498;2023-04-01T08:15:21;99696.50;;;11.31;82.59
72414;BME280;60995;52.154;4.498;2023-04-01T08:23:15;99705.66;;;11.47;83.24
72414;BME280;60995;52.154;4.498;2023-04-01T08:25:49;99718.06;;;11.41;83.03
72414;BME280;60995;52.154;4.498;2023-04-01T08:30:43;99717.53;;;11.62;82.58
72414;BME280;60995;52.154;4.498;2023-04-01T08:33:30;99719.22;;;11.55;82.08
72414;BME280;60995;52.154;4.498;2023-04-01T08:35:53;99724.84;;;11.53;82.40
72414;BME280;60995;52.154;4.498;2023-04-01T08:38:15;99724.97;;;11.77;81.30
72414;BME280;60995;52.154;4.498;2023-04-01T08:40:51;99735.50;;;11.80;81.84
72414;BME280;60995;52.154;4.498;2023-04-01T09:08:16;99758.63;;;11.59;82.21
72414;BME280;60995;52.154;4.498;2023-04-01T09:11:33;99771.19;;;11.44;82.50
72414;BME280;60995;52.154;4.498;2023-04-01T09:17:08;99777.97;;;11.89;81.43
72414;BME280;60995;52.154;4.498;2023-04-01T09:23:07;99776.63;;;11.68;81.63
72414;BME280;60995;52.154;4.498;2023-04-01T09:25:53;99780.84;;;11.87;81.11
72414;BME280;60995;52.154;4.498;2023-04-01T09:37:41;99794.63;;;11.78;82.30
72414;BME280;60995;52.154;4.498;2023-04-01T09:42:43;99797.50;;;11.43;83.31
72414;BME280;60995;52.154;4.498;2023-04-01T09:48:19;99802.09;;;11.84;82.51
72414;BME280;60995;52.154;4.498;2023-04-01T09:51:26;99804.13;;;11.65;81.81
72414;BME280;60995;52.154;4.498;2023-04-01T09:57:22;99810.91;;;11.86;81.68
72414;BME280;60995;52.154;4.498;2023-04-01T10:05:39;99819.38;;;12.24;80.90
72414;BME280;60995;52.154;4.498;2023-04-01T10:11:23;99825.53;;;12.01;80.95
72414;BME280;60995;52.154;4.498;2023-04-01T10:17:26;99832.31;;;12.05;80.96
72414;BME280;60995;52.154;4.498;2023-04-01T10:23:02;99839.78;;;12.20;81.13
72414;BME280;60995;52.154;4.498;2023-04-01T10:26:07;99849.50;;;12.06;80.79
72414;BME280;60995;52.154;4.498;2023-04-01T10:46:06;99861.88;;;12.33;79.72
72414;BME280;60995;52.154;4.498;2023-04-01T11:15:49;99867.75;;;12.53;78.04
72414;BME280;60995;52.154;4.498;2023-04-01T11:21:46;99885.41;;;12.74;78.59
72414;BME280;60995;52.154;4.498;2023-04-01T11:27:15;99895.47;;;12.49;78.90
72414;BME280;60995;52.154;4.498;2023-04-01T11:32:31;99896.44;;;12.81;78.07
72414;BME280;60995;52.154;4.498;2023-04-01T11:35:49;99898.53;;;12.54;78.56
72414;BME280;60995;52.154;4.498;2023-04-01T11:41:23;99907.88;;;12.68;78.90
72414;BME280;60995;52.154;4.498;2023-04-01T11:52:35;99915.66;;;13.27;77.13
72414;BME280;60995;52.154;4.498;2023-04-01T12:02:55;99930.81;;;13.84;74.32
72414;BME280;60995;52.154;4.498;2023-04-01T12:07:55;99935.63;;;14.05;73.89
72414;BME280;60995;52.154;4.498;2023-04-01T12:13:56;99945.19;;;14.63;72.48
72414;BME280;60995;52.154;4.498;2023-04-01T12:16:26;99952.50;;;14.47;72.36
72414;BME280;60995;52.154;4.498;2023-04-01T12:19:15;99948.91;;;14.23;72.87
72414;BME280;60995;52.154;4.498;2023-04-01T12:21:36;99952.78;;;13.91;73.49
72414;BME280;60995;52.154;4.498;2023-04-01T12:24:29;99959.31;;;14.05;73.88
72414;BME280;60995;52.154;4.498;2023-04-01T12:27:23;99958.56;;;13.88;74.17
72414;BME280;60995;52.154;4.498;2023-04-01T12:47:09;99982.41;;;14.17;73.41
72414;BME280;60995;52.154;4.498;2023-04-01T12:52:45;99996.22;;;14.39;72.80
72414;BME280;60995;52.154;4.498;2023-04-01T12:57:59;99990.09;;;14.60;72.05
72414;BME280;60995;52.154;4.498;2023-04-01T13:01:01;99988.53;;;14.81;70.59
72414;BME280;60995;52.154;4.498;2023-04-01T13:06:24;99999.63;;;14.79;69.12
72414;BME280;60995;52.154;4.498;2023-04-01T13:08:57;100009.25;;;14.29;71.14
72414;BME280;60995;52.154;4.498;2023-04-01T13:16:48;100014.47;;;14.38;71.53
72414;BME280;60995;52.154;4.498;2023-04-01T13:19:31;100024.91;;;14.35;71.36
72414;BME280;60995;52.154;4.498;2023-04-01T13:22:28;100024.22;;;14.56;70.56
72414;BME280;60995;52.154;4.498;2023-04-01T13:25:13;100033.06;;;14.12;71.26
72414;BME280;60995;52.154;4.498;2023-04-01T13:27:49;100031.84;;;14.46;70.43
72414;BME280;60995;52.154;4.498;2023-04-01T13:45:17;100047.84;;;14.72;69.57
72414;BME280;60995;52.154;4.498;2023-04-01T13:59:00;100062.13;;;14.04;70.67
72414;BME280;60995;52.154;4.498;2023-04-01T14:01:32;100059.03;;;13.76;72.85
72414;BME280;60995;52.154;4.498;2023-04-01T14:06:54;100073.31;;;13.22;74.79
72414;BME280;60995;52.154;4.498;2023-04-01T14:33:47;100130.81;;;11.85;84.48
72414;BME280;60995;52.154;4.498;2023-04-01T14:37:22;100126.94;;;12.39;83.79
72414;BME280;60995;52.154;4.498;2023-04-01T14:39:57;100125.22;;;12.38;82.70
72414;BME280;60995;52.154;4.498;2023-04-01T14:43:19;100133.53;;;12.36;82.92
72414;BME280;60995;52.154;4.498;2023-04-01T14:51:23;100140.34;;;12.49;82.15
72414;BME280;60995;52.154;4.498;2023-04-01T14:53:57;100137.00;;;12.71;81.33
72414;BME280;60995;52.154;4.498;2023-04-01T14:56:43;100150.22;;;12.33;81.61
72414;BME280;60995;52.154;4.498;2023-04-01T14:59:15;100149.34;;;12.33;82.24
72414;BME280;60995;52.154;4.498;2023-04-01T15:10:12;100178.78;;;12.46;83.13
72414;BME280;60995;52.154;4.498;2023-04-01T15:18:32;100185.97;;;12.55;82.19
72414;BME280;60995;52.154;4.498;2023-04-01T15:26:42;100212.50;;;12.53;82.83
72414;BME280;60995;52.154;4.498;2023-04-01T15:29:46;100212.81;;;12.50;82.78
72414;BME280;60995;52.154;4.498;2023-04-01T15:32:39;100222.69;;;12.51;82.85
72414;BME280;60995;52.154;4.498;2023-04-01T15:35:30;100230.56;;;12.62;82.09
72414;BME280;60995;52.154;4.498;2023-04-01T15:40:49;100239.66;;;12.45;82.40
72414;BME280;60995;52.154;4.498;2023-04-01T15:48:52;100254.59;;;12.32;82.26
72414;BME280;60995;52.154;4.498;2023-04-01T15:51:28;100248.72;;;12.53;81.83
72414;BME280;60995;52.154;4.498;2023-04-01T15:59:29;100269.66;;;12.53;81.77
72414;BME280;60995;52.154;4.498;2023-04-01T16:02:10;100269.22;;;12.31;81.02
72414;BME280;60995;52.154;4.498;2023-04-01T16:21:32;100311.63;;;11.71;82.23
72414;BME280;60995;52.154;4.498;2023-04-01T16:23:59;100315.63;;;11.59;82.94
72414;BME280;60995;52.154;4.498;2023-04-01T16:26:43;100328.66;;;11.37;84.04
72414;BME280;60995;52.154;4.498;2023-04-01T16:29:28;100343.09;;;11.20;84.95
72414;BME280;60995;52.154;4.498;2023-04-01T16:34:21;100336.34;;;11.24;83.79
72414;BME280;60995;52.154;4.498;2023-04-01T16:36:54;100345.41;;;11.33;83.55
72414;BME280;60995;52.154;4.498;2023-04-01T16:42:38;100345.03;;;11.64;82.73
72414;BME280;60995;52.154;4.498;2023-04-01T16:47:54;100357.00;;;11.35;82.46
72414;BME280;60995;52.154;4.498;2023-04-01T16:50:26;100364.28;;;11.34;82.30
72414;BME280;60995;52.154;4.498;2023-04-01T16:53:10;100376.41;;;11.40;82.38
72414;BME280;60995;52.154;4.498;2023-04-01T16:58:25;100396.03;;;11.52;81.68
72414;BME280;60995;52.154;4.498;2023-04-01T17:00:53;100398.97;;;11.40;81.95
72414;BME280;60995;52.154;4.498;2023-04-01T17:03:26;100401.06;;;11.47;81.48
72414;BME280;60995;52.154;4.498;2023-04-01T17:05:55;100401.84;;;11.39;81.60
72414;BME280;60995;52.154;4.498;2023-04-01T17:14:23;100417.97;;;11.22;81.48
72414;BME280;60995;52.154;4.498;2023-04-01T17:16:52;100429.44;;;11.16;82.02
72414;BME280;60995;52.154;4.498;2023-04-01T17:28:33;100456.84;;;11.23;81.00
72414;BME280;60995;52.154;4.498;2023-04-01T17:34:00;100475.25;;;11.29;81.13
72414;BME280;60995;52.154;4.498;2023-04-01T17:36:44;100484.91;;;11.14;81.10
72414;BME280;60995;52.154;4.498;2023-04-01T17:41:51;100490.34;;;11.14;81.16
72414;BME280;60995;52.154;4.498;2023-04-01T18:00:01;100520.91;;;10.68;81.32
72414;BME280;60995;52.154;4.498;2023-04-01T18:05:21;100541.84;;;10.86;81.16
72414;BME280;60995;52.154;4.498;2023-04-01T18:08:03;100544.88;;;10.83;80.89
72414;BME280;60995;52.154;4.498;2023-04-01T18:11:08;100562.03;;;10.73;81.22
72414;BME280;60995;52.154;4.498;2023-04-01T18:26:59;100598.72;;;10.78;79.95
72414;BME280;60995;52.154;4.498;2023-04-01T18:37:55;100611.22;;;11.18;79.07
72414;BME280;60995;52.154;4.498;2023-04-01T18:40:53;100626.56;;;10.99;79.03
72414;BME280;60995;52.154;4.498;2023-04-01T18:43:33;100639.28;;;10.89;79.55
72414;BME280;60995;52.154;4.498;2023-04-01T18:46:02;100648.28;;;10.89;79.67
72414;BME280;60995;52.154;4.498;2023-04-01T18:48:43;100654.44;;;10.91;79.41
72414;BME280;60995;52.154;4.498;2023-04-01T18:56:39;100675.84;;;10.55;79.13
72414;BME280;60995;52.154;4.498;2023-04-01T19:04:56;100689.56;;;10.54;79.44
72414;BME280;60995;52.154;4.498;2023-04-01T19:07:47;100701.97;;;10.37;79.67
72414;BME280;60995;52.154;4.498;2023-04-01T19:32:30;100760.81;;;9.84;80.30
72414;BME280;60995;52.154;4.498;2023-04-01T19:38:15;100775.22;;;9.85;80.19
72414;BME280;60995;52.154;4.498;2023-04-01T19:40:55;100777.13;;;9.94;80.08
72414;BME280;60995;52.154;4.498;2023-04-01T19:43:50;100783.06;;;9.88;80.16
72414;BME280;60995;52.154;4.498;2023-04-01T19:46:43;100786.66;;;9.88;80.07
72414;BME280;60995;52.154;4.498;2023-04-01T19:49:53;100790.00;;;10.02;79.83
72414;BME280;60995;52.154;4.498;2023-04-01T19:58:23;100794.34;;;9.83;79.93
72414;BME280;60995;52.154;4.498;2023-04-01T20:00:51;100812.34;;;9.94;79.88
72414;BME280;60995;52.154;4.498;2023-04-01T20:03:30;100811.97;;;9.77;79.77
72414;BME280;60995;52.154;4.498;2023-04-01T20:06:04;100826.66;;;9.96;79.51
72414;BME280;60995;52.154;4.498;2023-04-01T20:08:38;100828.00;;;9.90;79.80
72414;BME280;60995;52.154;4.498;2023-04-01T20:13:55;100841.19;;;9.95;79.36
72414;BME280;60995;52.154;4.498;2023-04-01T20:16:40;100838.88;;;9.69;79.67
72414;BME280;60995;52.154;4.498;2023-04-01T20:19:07;100846.72;;;9.72;79.46
72414;BME280;60995;52.154;4.498;2023-04-01T20:21:33;100858.16;;;9.55;79.80
72414;BME280;60995;52.154;4.498;2023-04-01T20:29:56;100868.69;;;9.69;79.57
72414;BME280;60995;52.154;4.498;2023-04-01T20:32:58;100876.06;;;9.67;79.56
72414;BME280;60995;52.154;4.498;2023-04-01T20:37:56;100892.06;;;9.70;79.13
72414;BME280;60995;52.154;4.498;2023-04-01T20:40:41;100890.22;;;9.71;78.84
72414;BME280;60995;52.154;4.498;2023-04-01T20:46:07;100897.22;;;9.94;78.73
72414;BME280;60995;52.154;4.498;2023-04-01T20:51:38;100917.00;;;9.53;79.24
72414;BME280;60995;52.154;4.498;2023-04-01T20:54:11;100913.78;;;9.59;79.15
72414;BME280;60995;52.154;4.498;2023-04-01T21:02:05;100933.84;;;9.68;78.52
72414;BME280;60995;52.154;4.498;2023-04-01T21:07:48;100953.22;;;9.52;79.30
72414;BME280;60995;52.154;4.498;2023-04-01T21:10:37;100955.47;;;9.47;79.09
72414;BME280;60995;52.154;4.498;2023-04-01T21:13:21;100960.97;;;9.56;79.00
72414;BME280;60995;52.154;4.498;2023-04-01T21:18:53;100969.72;;;9.49;79.26
72414;BME280;60995;52.154;4.498;2023-04-01T21:24:38;100977.97;;;9.47;79.04
72414;BME280;60995;52.154;4.498;2023-04-01T21:32:45;101004.97;;;9.26;79.21
72414;BME280;60995;52.154;4.498;2023-04-01T21:35:31;101016.31;;;9.31;79.13
72414;BME280;60995;52.154;4.498;2023-04-01T21:40:47;101013.81;;;9.28;78.58